RPC240 RPVB-RPVI
Flight info
| Callsign | RPC240 |
|---|---|
| Flight time | 0h 22m |
| Altitude | 2500 |
| Route | VFR |
| Aircraft | C152/L-SDF/C |
Departure
| Time | 2026-04-23 01:27 |
|---|---|
| Airport | Bacolod-Silay International Airport (RPVB) |
Arrival
| Time | 2026-04-23 01:49 |
|---|---|
| Airport | Iloilo International Airport (RPVI) |
| Time | Latitude | Longitude | Altitude | Speed | Heading |
|---|---|---|---|---|---|
| 2026-04-23 01:16 | 10.77336 | 123.01408 | 80 ft | 0 kts | 29° |
| 2026-04-23 01:21 | 10.77336 | 123.01417 | 82 ft | 5 kts | 137° |
| 2026-04-23 01:21 | 10.77287 | 123.01399 | 80 ft | 8 kts | 162° |
| 2026-04-23 01:22 | 10.77285 | 123.01411 | 84 ft | 0 kts | 14° |
| 2026-04-23 01:23 | 10.77309 | 123.01422 | 82 ft | 8 kts | 33° |
| 2026-04-23 01:23 | 10.77333 | 123.01466 | 81 ft | 11 kts | 30° |
| 2026-04-23 01:24 | 10.77366 | 123.01519 | 89 ft | 13 kts | 124° |
| 2026-04-23 01:24 | 10.77311 | 123.01611 | 87 ft | 17 kts | 122° |
| 2026-04-23 01:24 | 10.77218 | 123.01649 | 89 ft | 19 kts | 209° |
| 2026-04-23 01:24 | 10.77090 | 123.01573 | 89 ft | 24 kts | 210° |
| 2026-04-23 01:25 | 10.76957 | 123.01492 | 90 ft | 15 kts | 221° |
| 2026-04-23 01:25 | 10.76910 | 123.01440 | 90 ft | 8 kts | 143° |
| 2026-04-23 01:25 | 10.76925 | 123.01473 | 90 ft | 5 kts | 32° |
| 2026-04-23 01:25 | 10.76927 | 123.01474 | 90 ft | 0 kts | 34° |
| 2026-04-23 01:26 | 10.76983 | 123.01509 | 89 ft | 34 kts | 30° |
| 2026-04-23 01:26 | 10.77312 | 123.01691 | 173 ft | 64 kts | 27° |
| 2026-04-23 01:26 | 10.77740 | 123.01943 | 312 ft | 75 kts | 29° |
| 2026-04-23 01:26 | 10.78216 | 123.02217 | 525 ft | 81 kts | 31° |
| 2026-04-23 01:27 | 10.78712 | 123.02483 | 690 ft | 79 kts | 33° |
| 2026-04-23 01:27 | 10.79235 | 123.02658 | 875 ft | 86 kts | 10° |
| 2026-04-23 01:27 | 10.79819 | 123.02470 | 1085 ft | 92 kts | 337° |
| 2026-04-23 01:27 | 10.80333 | 123.02063 | 1206 ft | 96 kts | 326° |
| 2026-04-23 01:28 | 10.80818 | 123.01604 | 1314 ft | 94 kts | 324° |
| 2026-04-23 01:28 | 10.81275 | 123.01129 | 1395 ft | 95 kts | 322° |
| 2026-04-23 01:28 | 10.81727 | 123.00632 | 1560 ft | 97 kts | 320° |
| 2026-04-23 01:28 | 10.82190 | 123.00125 | 1733 ft | 98 kts | 319° |
| 2026-04-23 01:29 | 10.82638 | 122.99617 | 1843 ft | 96 kts | 323° |
| 2026-04-23 01:29 | 10.83229 | 122.99330 | 1930 ft | 95 kts | 350° |
| 2026-04-23 01:29 | 10.83657 | 122.99221 | 1958 ft | 96 kts | 352° |
| 2026-04-23 01:29 | 10.84506 | 122.98934 | 2142 ft | 97 kts | 349° |
| 2026-04-23 01:30 | 10.85154 | 122.98730 | 2258 ft | 99 kts | 352° |
| 2026-04-23 01:30 | 10.85813 | 122.98533 | 2307 ft | 100 kts | 349° |
| 2026-04-23 01:30 | 10.86473 | 122.98319 | 2337 ft | 100 kts | 348° |
| 2026-04-23 01:30 | 10.87130 | 122.98101 | 2366 ft | 100 kts | 353° |
| 2026-04-23 01:31 | 10.87796 | 122.97903 | 2338 ft | 100 kts | 346° |
| 2026-04-23 01:31 | 10.88359 | 122.97466 | 2326 ft | 105 kts | 314° |
| 2026-04-23 01:31 | 10.88701 | 122.96794 | 2374 ft | 112 kts | 284° |
| 2026-04-23 01:31 | 10.88743 | 122.96007 | 2414 ft | 110 kts | 272° |
| 2026-04-23 01:32 | 10.88768 | 122.95229 | 2451 ft | 110 kts | 272° |
| 2026-04-23 01:32 | 10.88777 | 122.94717 | 2462 ft | 109 kts | 272° |
| 2026-04-23 01:32 | 10.88769 | 122.93666 | 2451 ft | 111 kts | 270° |
| 2026-04-23 01:32 | 10.88764 | 122.93149 | 2470 ft | 111 kts | 271° |
| 2026-04-23 01:33 | 10.88732 | 122.92366 | 2461 ft | 110 kts | 268° |
| 2026-04-23 01:33 | 10.88689 | 122.91584 | 2450 ft | 111 kts | 267° |
| 2026-04-23 01:33 | 10.88643 | 122.90790 | 2463 ft | 113 kts | 268° |
| 2026-04-23 01:33 | 10.88561 | 122.89987 | 2483 ft | 114 kts | 263° |
| 2026-04-23 01:34 | 10.88441 | 122.89188 | 2463 ft | 115 kts | 263° |
| 2026-04-23 01:34 | 10.88387 | 122.88385 | 2463 ft | 112 kts | 270° |
| 2026-04-23 01:34 | 10.88469 | 122.87596 | 2445 ft | 113 kts | 281° |
| 2026-04-23 01:34 | 10.88538 | 122.86806 | 2454 ft | 111 kts | 276° |
| 2026-04-23 01:35 | 10.88586 | 122.86000 | 2403 ft | 115 kts | 276° |
| 2026-04-23 01:35 | 10.88649 | 122.85204 | 2400 ft | 112 kts | 280° |
| 2026-04-23 01:35 | 10.88757 | 122.84427 | 2386 ft | 109 kts | 281° |
| 2026-04-23 01:35 | 10.88876 | 122.83665 | 2361 ft | 108 kts | 282° |
| 2026-04-23 01:36 | 10.88977 | 122.82908 | 2352 ft | 109 kts | 278° |
| 2026-04-23 01:36 | 10.89038 | 122.82138 | 2366 ft | 110 kts | 275° |
| 2026-04-23 01:36 | 10.89072 | 122.81362 | 2362 ft | 109 kts | 273° |
| 2026-04-23 01:36 | 10.89087 | 122.80598 | 2362 ft | 107 kts | 273° |
| 2026-04-23 01:37 | 10.89091 | 122.79845 | 2381 ft | 106 kts | 273° |
| 2026-04-23 01:37 | 10.89089 | 122.79090 | 2403 ft | 107 kts | 272° |
| 2026-04-23 01:37 | 10.89100 | 122.78330 | 2406 ft | 109 kts | 272° |
| 2026-04-23 01:37 | 10.89113 | 122.77570 | 2431 ft | 107 kts | 271° |
| 2026-04-23 01:38 | 10.89110 | 122.76805 | 2415 ft | 110 kts | 270° |
| 2026-04-23 01:38 | 10.89111 | 122.76032 | 2429 ft | 108 kts | 272° |
| 2026-04-23 01:38 | 10.89121 | 122.75265 | 2484 ft | 109 kts | 272° |
| 2026-04-23 01:38 | 10.89130 | 122.74479 | 2520 ft | 113 kts | 270° |
| 2026-04-23 01:39 | 10.89124 | 122.73688 | 2521 ft | 111 kts | 268° |
| 2026-04-23 01:39 | 10.89096 | 122.72912 | 2500 ft | 112 kts | 276° |
| 2026-04-23 01:39 | 10.89198 | 122.72143 | 2504 ft | 108 kts | 282° |
| 2026-04-23 01:39 | 10.89422 | 122.71408 | 2498 ft | 108 kts | 288° |
| 2026-04-23 01:40 | 10.89447 | 122.70660 | 2388 ft | 106 kts | 260° |
| 2026-04-23 01:40 | 10.89278 | 122.69919 | 2383 ft | 109 kts | 257° |
| 2026-04-23 01:40 | 10.89099 | 122.69161 | 2280 ft | 111 kts | 254° |
| 2026-04-23 01:40 | 10.88865 | 122.68413 | 2257 ft | 110 kts | 251° |
| 2026-04-23 01:41 | 10.88612 | 122.67673 | 2190 ft | 111 kts | 249° |
| 2026-04-23 01:41 | 10.88342 | 122.66954 | 2160 ft | 109 kts | 249° |
| 2026-04-23 01:41 | 10.88122 | 122.66218 | 2149 ft | 108 kts | 257° |
| 2026-04-23 01:41 | 10.88013 | 122.65464 | 2113 ft | 107 kts | 263° |
| 2026-04-23 01:42 | 10.87932 | 122.64716 | 2025 ft | 106 kts | 265° |
| 2026-04-23 01:42 | 10.87852 | 122.63979 | 1932 ft | 106 kts | 265° |
| 2026-04-23 01:42 | 10.87768 | 122.63226 | 1768 ft | 106 kts | 264° |
| 2026-04-23 01:42 | 10.87706 | 122.62477 | 1634 ft | 106 kts | 266° |
| 2026-04-23 01:43 | 10.87686 | 122.61747 | 1570 ft | 103 kts | 270° |
| 2026-04-23 01:43 | 10.87649 | 122.61013 | 1527 ft | 104 kts | 269° |
| 2026-04-23 01:43 | 10.87611 | 122.60280 | 1527 ft | 102 kts | 270° |
| 2026-04-23 01:43 | 10.87578 | 122.59548 | 1554 ft | 106 kts | 268° |
| 2026-04-23 01:44 | 10.87476 | 122.58801 | 1467 ft | 107 kts | 251° |
| 2026-04-23 01:44 | 10.87126 | 122.58132 | 1406 ft | 105 kts | 237° |
| 2026-04-23 01:44 | 10.86733 | 122.57526 | 1364 ft | 102 kts | 237° |
| 2026-04-23 01:44 | 10.86319 | 122.56941 | 1352 ft | 104 kts | 231° |
| 2026-04-23 01:45 | 10.85842 | 122.56397 | 1304 ft | 101 kts | 227° |
| 2026-04-23 01:45 | 10.85359 | 122.55891 | 1262 ft | 99 kts | 224° |
| 2026-04-23 01:45 | 10.84863 | 122.55400 | 1190 ft | 97 kts | 221° |
| 2026-04-23 01:45 | 10.84365 | 122.54934 | 1105 ft | 98 kts | 222° |
| 2026-04-23 01:46 | 10.83890 | 122.54434 | 1117 ft | 99 kts | 226° |
| 2026-04-23 01:46 | 10.83424 | 122.53925 | 1060 ft | 98 kts | 227° |
| 2026-04-23 01:46 | 10.83048 | 122.53349 | 1041 ft | 98 kts | 251° |
| 2026-04-23 01:46 | 10.82836 | 122.52696 | 1003 ft | 96 kts | 254° |
| 2026-04-23 01:47 | 10.82495 | 122.52105 | 942 ft | 103 kts | 222° |
| 2026-04-23 01:47 | 10.81887 | 122.51752 | 904 ft | 98 kts | 205° |
| 2026-04-23 01:47 | 10.81297 | 122.51409 | 811 ft | 98 kts | 212° |
| 2026-04-23 01:47 | 10.80721 | 122.51031 | 794 ft | 98 kts | 219° |
| 2026-04-23 01:48 | 10.80480 | 122.50449 | 771 ft | 86 kts | 284° |
| 2026-04-23 01:48 | 10.80672 | 122.49916 | 698 ft | 76 kts | 296° |
| 2026-04-23 01:48 | 10.80877 | 122.49450 | 539 ft | 68 kts | 303° |
| 2026-04-23 01:48 | 10.81047 | 122.49023 | 480 ft | 65 kts | 316° |
| 2026-04-23 01:49 | 10.81365 | 122.48750 | 407 ft | 57 kts | 353° |
| 2026-04-23 01:49 | 10.81733 | 122.48751 | 318 ft | 50 kts | 16° |
| 2026-04-23 01:49 | 10.82058 | 122.48868 | 232 ft | 51 kts | 24° |
| 2026-04-23 01:49 | 10.82384 | 122.48991 | 158 ft | 47 kts | 27° |
| 2026-04-23 01:50 | 10.82651 | 122.49095 | 134 ft | 34 kts | 20° |
| 2026-04-23 01:50 | 10.82849 | 122.49167 | 135 ft | 27 kts | 21° |
| 2026-04-23 01:50 | 10.83036 | 122.49238 | 135 ft | 30 kts | 20° |
| 2026-04-23 01:50 | 10.83233 | 122.49310 | 136 ft | 31 kts | 20° |
| 2026-04-23 01:51 | 10.83433 | 122.49386 | 135 ft | 29 kts | 21° |
| 2026-04-23 01:51 | 10.83556 | 122.49461 | 135 ft | 15 kts | 86° |
| 2026-04-23 01:51 | 10.83525 | 122.49566 | 134 ft | 15 kts | 111° |
| 2026-04-23 01:51 | 10.83488 | 122.49655 | 134 ft | 12 kts | 127° |
| 2026-04-23 01:52 | 10.83449 | 122.49731 | 134 ft | 12 kts | 109° |
| 2026-04-23 01:52 | 10.83425 | 122.49800 | 134 ft | 7 kts | 97° |
| 2026-04-23 01:52 | 10.83460 | 122.49817 | 134 ft | 7 kts | 25° |
| 2026-04-23 01:52 | 10.83453 | 122.49827 | 134 ft | 0 kts | 221° |